DABT

Batna Airport

Batna, Algeria
METAR DABT 170700Z 20005KT 9999 FEW010 SCT090 01/01 Q1022
Observed Flight Rules
Dec-17 @ 07:00 UTC (an hour ago) Visual Flight Rules
Wind Visibility Clouds
200° at 5 knots 10,000+ meters
  • Few at 1,000' AGL
  • Scattered at 9,000' AGL
Temperatures Readings
Current 1°C / 34°F
Dewpoint 1°C / 34°F
Humidity 100%
Altimeter 30.18" Hg
Pressure 1022 hPa
Elevation 823
METAR DABT 170700Z 20005KT 9999 FEW010 SCT090 01/01 Q1022
Observed Flight Rules
Dec-17 @ 07:00 UTC
(an hour ago)
VFR
Wind Visibility
200° at 5 knots 10,000+ meters
Clouds
  • Few at 1,000' AGL
  • Scattered at 9,000' AGL
Temperature Dewpoint
1°C / 34°F 1°C / 34°F
Humidity Altimeter Pressure
100% 30.18" Hg 1022 hPa